Cyr Plt, Maine
Current Conditions -  °F | °C
As of 4:54 PM on Monday 22 Dec 2014 (Local Time) from KCAR Reporting Station
Overcast Overcast  
Wind Chill: 27°   Ceiling: 1300
Heat Index: 27°   Visibility: 10mi
Dew Point: 23°   Wind: 3mph
Humidity: 85%   Direction: 130°SE
Pressure: 30.39"   Gusts: NA
Location:  47.123°N, 67.9773°W
Report Text: KCAR 222154Z AUTO 13003KT 10SM OVC013 M03/M05 A3039 RMK AO2 SLP305 T10281050
Loading
Personal Weather Stations






























Interactive Weather Map New forecast layout! Learn more

10-Day Weather Forecast

Advertisements
Track Severe Weather on mobile